X  Schlie├čen Metar Luftfahrt Wetterdaten     EDDS Stuttgart Airport
Temperatur
9°C Temperatur
5°C Taupunkt
76% Feuchtigkeit



Wind
5 KM/H
3 MPH
1 M/S
3 KTS



300°
WNW
Aktuelle Wetterlage

Klar Klar
Luftdruck 1019.92 (hPa) - 30.12 (inHg)
Sichtweite 6.2 (Meile) - 10 (km)
Flughafen
Flughafen Code EDDS

Position : Stuttgart Airport
Entfernung: 10 (km)

Metar:
EDDS 190150Z 30003KT CAVOK 09/05 Q1020

Zeit: 19-09-2020 03:50 CEST